Time;durP1;ratioP1;P1;durP2;ratioP2;P2;SDS_P1;SDS_P2;PMS_P1;PMS_P2;Temp;Humidity;BMP_temperature;BMP_pressure;BME280_temperature;BME280_humidity;BME280_pressure;Samples;Min_cycle;Max_cycle;Signal;HPM_P1;HPM_P2
2023/05/31 00:01:39;;;;;;;0.25;0.20;;;;;;;;;;4983351;28;20046;-88
2023/05/31 00:04:06;;;;;;;0.20;0.10;;;;;;;;;;4986170;28;20122;-85
2023/05/31 00:06:32;;;;;;;0.20;0.10;;;;;;;;;;4982474;28;21815;-84
2023/05/31 00:08:58;;;;;;;0.22;0.22;;;;;;;;;;4983791;28;20056;-86
2023/05/31 00:11:26;;;;;;;0.20;0.13;;;;;;;;;;4984501;28;20053;-83
2023/05/31 00:13:52;;;;;;;0.25;0.20;;;;;;;;;;4982287;28;20108;-88
2023/05/31 00:16:18;;;;;;;0.20;0.10;;;;;;;;;;4982237;28;20851;-82
2023/05/31 00:18:44;;;;;;;0.20;0.10;;;;;;;;;;4968141;28;20042;-85
2023/05/31 00:21:10;;;;;;;1.55;0.30;;;;;;;;;;4982871;28;20038;-85
2023/05/31 00:23:36;;;;;;;0.30;0.20;;;;;;;;;;4965476;28;20113;-85
2023/05/31 00:26:02;;;;;;;0.20;0.10;;;;;;;;;;4982330;28;20038;-84
2023/05/31 00:28:28;;;;;;;0.20;0.15;;;;;;;;;;4981570;28;20427;-84
2023/05/31 00:30:54;;;;;;;0.22;0.20;;;;;;;;;;4982614;28;20039;-83
2023/05/31 00:33:20;;;;;;;0.20;0.10;;;;;;;;;;4982495;28;20042;-84
2023/05/31 00:35:46;;;;;;;0.20;0.10;;;;;;;;;;4983452;28;20113;-84
2023/05/31 00:38:13;;;;;;;0.20;0.10;;;;;;;;;;4982374;28;20050;-83
2023/05/31 00:40:39;;;;;;;0.40;0.28;;;;;;;;;;4963292;28;20042;-86
2023/05/31 00:43:05;;;;;;;0.20;0.10;;;;;;;;;;4982749;28;20081;-83
2023/05/31 00:45:32;;;;;;;0.20;0.10;;;;;;;;;;4970159;28;20160;-82
2023/05/31 00:47:59;;;;;;;0.20;0.10;;;;;;;;;;4981025;28;20042;-86
2023/05/31 00:50:25;;;;;;;0.20;0.10;;;;;;;;;;4969778;28;20535;-84
2023/05/31 00:52:52;;;;;;;0.20;0.10;;;;;;;;;;4982911;28;20061;-85
2023/05/31 00:55:18;;;;;;;0.20;0.00;;;;;;;;;;4984210;28;20031;-84
2023/05/31 00:57:44;;;;;;;0.20;0.10;;;;;;;;;;4981998;28;20034;-84
2023/05/31 01:00:11;;;;;;;0.20;0.10;;;;;;;;;;4968854;28;20034;-84
2023/05/31 01:02:38;;;;;;;0.20;0.10;;;;;;;;;;4981481;28;20065;-83
2023/05/31 01:05:07;;;;;;;0.20;0.10;;;;;;;;;;4983513;28;20464;-85
2023/05/31 01:07:34;;;;;;;0.20;0.10;;;;;;;;;;4967984;28;20042;-84
2023/05/31 01:10:00;;;;;;;0.20;0.10;;;;;;;;;;4980659;28;20035;-83
2023/05/31 01:12:32;;;;;;;0.47;0.35;;;;;;;;;;4969786;28;20038;-82
2023/05/31 01:15:13;;;;;;;0.75;0.75;;;;;;;;;;4964105;28;20061;-83
2023/05/31 01:17:39;;;;;;;0.20;0.10;;;;;;;;;;4969929;28;20088;-82
2023/05/31 01:20:08;;;;;;;0.20;0.10;;;;;;;;;;4985908;28;20038;-82
2023/05/31 01:22:44;;;;;;;0.60;0.38;;;;;;;;;;4986135;28;20121;-82
2023/05/31 01:25:29;;;;;;;0.20;0.10;;;;;;;;;;4983853;28;20084;-84
2023/05/31 01:27:56;;;;;;;0.20;0.10;;;;;;;;;;4978620;28;20415;-84
2023/05/31 01:30:23;;;;;;;0.20;0.10;;;;;;;;;;5002382;28;20069;-82
2023/05/31 01:32:49;;;;;;;0.20;0.10;;;;;;;;;;4988270;28;20415;-81
2023/05/31 01:35:15;;;;;;;0.82;0.40;;;;;;;;;;4968489;28;20039;-84
2023/05/31 01:37:41;;;;;;;0.20;0.10;;;;;;;;;;4972248;28;20073;-84
2023/05/31 01:40:08;;;;;;;0.20;0.10;;;;;;;;;;4987848;28;20443;-84
2023/05/31 01:42:35;;;;;;;0.30;0.30;;;;;;;;;;4984643;28;20653;-82
2023/05/31 01:45:01;;;;;;;0.20;0.10;;;;;;;;;;4969942;28;20045;-84
2023/05/31 01:47:28;;;;;;;0.20;0.10;;;;;;;;;;4971207;28;20527;-84
2023/05/31 01:49:55;;;;;;;0.22;0.10;;;;;;;;;;4970898;28;20046;-84
2023/05/31 01:52:21;;;;;;;0.20;0.10;;;;;;;;;;4984426;28;20547;-82
2023/05/31 01:54:50;;;;;;;0.20;0.10;;;;;;;;;;4986791;28;20659;-85
2023/05/31 01:57:17;;;;;;;0.28;0.10;;;;;;;;;;4987552;28;20072;-84
2023/05/31 01:59:44;;;;;;;0.20;0.10;;;;;;;;;;4967774;28;20065;-83
2023/05/31 02:02:10;;;;;;;0.20;0.10;;;;;;;;;;4987042;28;20042;-84
2023/05/31 02:04:36;;;;;;;0.20;0.10;;;;;;;;;;4986808;28;20038;-84
2023/05/31 02:07:02;;;;;;;0.20;0.10;;;;;;;;;;4970977;28;20045;-87
2023/05/31 02:09:28;;;;;;;0.20;0.10;;;;;;;;;;4987696;28;20507;-82
2023/05/31 02:11:54;;;;;;;0.20;0.10;;;;;;;;;;4978302;28;20042;-84
2023/05/31 02:14:20;;;;;;;0.20;0.05;;;;;;;;;;4974534;28;20466;-85
2023/05/31 02:16:46;;;;;;;0.20;0.10;;;;;;;;;;4986857;28;20074;-85
2023/05/31 02:19:13;;;;;;;0.20;0.10;;;;;;;;;;4986775;28;20092;-83
2023/05/31 02:21:39;;;;;;;0.20;0.10;;;;;;;;;;4986255;28;20058;-85
2023/05/31 02:24:06;;;;;;;0.20;0.10;;;;;;;;;;4987275;28;20525;-87
2023/05/31 02:26:32;;;;;;;0.20;0.10;;;;;;;;;;5004217;28;20112;-84
2023/05/31 02:28:58;;;;;;;0.20;0.10;;;;;;;;;;4971678;28;20125;-83
2023/05/31 02:31:24;;;;;;;0.20;0.13;;;;;;;;;;4984831;28;20039;-85
2023/05/31 02:33:50;;;;;;;0.50;0.32;;;;;;;;;;4986729;28;20035;-84
2023/05/31 02:36:16;;;;;;;0.22;0.13;;;;;;;;;;4985823;28;20096;-85
2023/05/31 02:38:42;;;;;;;0.20;0.10;;;;;;;;;;4985193;28;20042;-88
2023/05/31 02:41:08;;;;;;;0.20;0.10;;;;;;;;;;4983011;28;20117;-86
2023/05/31 02:43:34;;;;;;;0.20;0.10;;;;;;;;;;4986296;28;20305;-84
2023/05/31 02:46:01;;;;;;;0.20;0.10;;;;;;;;;;4985437;28;20065;-86
2023/05/31 02:48:29;;;;;;;0.20;0.10;;;;;;;;;;4983272;28;20081;-83
2023/05/31 02:50:55;;;;;;;0.20;0.10;;;;;;;;;;4969514;28;20042;-84
2023/05/31 02:53:21;;;;;;;0.20;0.10;;;;;;;;;;4972021;28;20042;-85
2023/05/31 02:55:47;;;;;;;0.20;0.10;;;;;;;;;;4974332;28;20542;-84
2023/05/31 02:58:14;;;;;;;0.20;0.10;;;;;;;;;;4984628;28;20041;-87
2023/05/31 03:00:40;;;;;;;0.20;0.10;;;;;;;;;;4974052;28;20073;-81
2023/05/31 03:03:06;;;;;;;0.20;0.10;;;;;;;;;;4984227;28;20041;-82
2023/05/31 03:05:33;;;;;;;0.20;0.10;;;;;;;;;;4982750;28;20049;-86
2023/05/31 03:07:59;;;;;;;0.20;0.10;;;;;;;;;;4983006;28;20038;-86
2023/05/31 03:10:25;;;;;;;0.20;0.10;;;;;;;;;;4984366;28;20042;-82
2023/05/31 03:12:51;;;;;;;0.20;0.00;;;;;;;;;;4972346;28;20450;-84
2023/05/31 03:15:17;;;;;;;0.20;0.10;;;;;;;;;;4986146;28;20034;-84
2023/05/31 03:17:43;;;;;;;0.20;0.10;;;;;;;;;;4988190;28;20092;-84
2023/05/31 03:20:10;;;;;;;0.30;0.30;;;;;;;;;;4985776;28;20046;-85
2023/05/31 03:22:36;;;;;;;0.20;0.10;;;;;;;;;;4979848;28;20046;-84
2023/05/31 03:25:03;;;;;;;0.22;0.13;;;;;;;;;;4976158;28;20034;-84
2023/05/31 03:27:30;;;;;;;0.20;0.10;;;;;;;;;;4984910;28;20388;-84
2023/05/31 03:29:56;;;;;;;0.20;0.10;;;;;;;;;;4985022;28;20050;-84
2023/05/31 03:32:22;;;;;;;0.20;0.10;;;;;;;;;;4972360;28;20137;-84
2023/05/31 03:34:48;;;;;;;0.20;0.10;;;;;;;;;;4969940;28;20122;-84
2023/05/31 03:37:14;;;;;;;0.20;0.10;;;;;;;;;;4986250;28;20046;-83
2023/05/31 03:39:40;;;;;;;0.20;0.08;;;;;;;;;;4987854;28;20518;-85
2023/05/31 03:42:07;;;;;;;0.20;0.10;;;;;;;;;;4974897;28;20034;-85
2023/05/31 03:44:33;;;;;;;0.20;0.10;;;;;;;;;;4964945;28;20533;-84
2023/05/31 03:46:59;;;;;;;0.20;0.20;;;;;;;;;;4987737;28;20038;-83
2023/05/31 03:49:25;;;;;;;0.20;0.10;;;;;;;;;;4985865;28;20042;-83
2023/05/31 03:51:51;;;;;;;0.20;0.10;;;;;;;;;;4968313;28;20488;-83
2023/05/31 03:54:17;;;;;;;0.20;0.10;;;;;;;;;;4985772;28;20121;-83
2023/05/31 03:56:43;;;;;;;0.20;0.10;;;;;;;;;;4987734;28;20037;-83
2023/05/31 03:59:09;;;;;;;1.13;0.30;;;;;;;;;;4983051;28;20410;-83
2023/05/31 04:01:35;;;;;;;0.20;0.10;;;;;;;;;;4984642;28;20046;-87
2023/05/31 04:04:01;;;;;;;0.20;0.10;;;;;;;;;;4987715;28;20038;-84
2023/05/31 04:06:28;;;;;;;0.20;0.10;;;;;;;;;;4982773;28;20042;-83
2023/05/31 04:08:54;;;;;;;0.30;0.20;;;;;;;;;;4983888;28;20096;-85
2023/05/31 04:11:20;;;;;;;0.20;0.10;;;;;;;;;;4984869;28;20038;-83
2023/05/31 04:13:46;;;;;;;0.75;0.40;;;;;;;;;;4970036;28;20474;-83
2023/05/31 04:16:12;;;;;;;0.38;0.30;;;;;;;;;;4985843;28;20475;-83
2023/05/31 04:18:38;;;;;;;0.20;0.00;;;;;;;;;;4984508;28;20038;-83
2023/05/31 04:21:05;;;;;;;0.20;0.00;;;;;;;;;;4984101;28;20053;-83
2023/05/31 04:23:31;;;;;;;0.35;0.25;;;;;;;;;;4984870;28;20053;-83
2023/05/31 04:25:57;;;;;;;0.20;0.10;;;;;;;;;;4986929;28;20043;-83
2023/05/31 04:28:23;;;;;;;0.20;0.10;;;;;;;;;;4984977;28;20054;-84
2023/05/31 04:30:51;;;;;;;0.20;0.13;;;;;;;;;;4967141;28;20039;-83
2023/05/31 04:33:18;;;;;;;0.20;0.10;;;;;;;;;;4981113;28;20046;-83
2023/05/31 04:35:44;;;;;;;0.20;0.10;;;;;;;;;;4983898;28;20435;-85
2023/05/31 04:38:11;;;;;;;0.20;0.10;;;;;;;;;;4983073;28;20049;-85
2023/05/31 04:40:38;;;;;;;0.20;0.10;;;;;;;;;;4982822;28;20407;-83
2023/05/31 04:43:05;;;;;;;0.20;0.10;;;;;;;;;;4984579;28;20045;-82
2023/05/31 04:45:32;;;;;;;0.20;0.10;;;;;;;;;;4984313;28;20139;-82
2023/05/31 04:47:58;;;;;;;0.20;0.10;;;;;;;;;;4985103;28;20081;-85
2023/05/31 04:50:24;;;;;;;0.20;0.10;;;;;;;;;;4984276;28;20046;-85
2023/05/31 04:52:51;;;;;;;0.20;0.10;;;;;;;;;;4987808;28;20030;-84
2023/05/31 04:55:17;;;;;;;0.20;0.10;;;;;;;;;;4978567;28;20076;-87
2023/05/31 04:57:43;;;;;;;0.20;0.00;;;;;;;;;;4986270;28;20042;-85
2023/05/31 05:00:12;;;;;;;0.20;0.10;;;;;;;;;;4987189;28;21555;-85
2023/05/31 05:02:38;;;;;;;0.20;0.10;;;;;;;;;;4985915;28;20038;-84
2023/05/31 05:05:04;;;;;;;0.30;0.20;;;;;;;;;;4990403;28;20584;-84
2023/05/31 05:07:30;;;;;;;0.20;0.10;;;;;;;;;;4986574;28;20041;-84
2023/05/31 05:09:56;;;;;;;0.20;0.10;;;;;;;;;;4973959;28;20054;-84
2023/05/31 05:12:22;;;;;;;0.20;0.20;;;;;;;;;;4989020;28;20106;-88
2023/05/31 05:14:48;;;;;;;0.20;0.10;;;;;;;;;;4970401;28;20042;-84
2023/05/31 05:17:14;;;;;;;0.20;0.00;;;;;;;;;;4990050;28;20035;-84
2023/05/31 05:19:40;;;;;;;0.20;0.10;;;;;;;;;;4991218;28;20626;-86
2023/05/31 05:22:06;;;;;;;0.20;0.10;;;;;;;;;;4988008;28;20053;-85
2023/05/31 05:24:33;;;;;;;0.20;0.10;;;;;;;;;;4970047;28;20034;-85
2023/05/31 05:26:59;;;;;;;0.20;0.10;;;;;;;;;;4988999;28;20034;-81
2023/05/31 05:29:24;;;;;;;0.25;0.20;;;;;;;;;;4989320;28;20868;-86
2023/05/31 05:31:51;;;;;;;0.20;0.10;;;;;;;;;;4968893;28;20042;-85
2023/05/31 05:34:19;;;;;;;0.20;0.10;;;;;;;;;;4987973;28;20525;-86
2023/05/31 05:36:46;;;;;;;0.20;0.10;;;;;;;;;;4970997;28;20418;-83
2023/05/31 05:39:12;;;;;;;0.20;0.10;;;;;;;;;;4978840;28;20133;-81
2023/05/31 05:41:38;;;;;;;0.20;0.10;;;;;;;;;;4982325;28;20068;-87
2023/05/31 05:44:10;;;;;;;0.20;0.10;;;;;;;;;;4971098;28;20042;-85
2023/05/31 05:46:39;;;;;;;0.20;0.10;;;;;;;;;;4983146;28;20046;-86
2023/05/31 05:49:12;;;;;;;0.20;0.10;;;;;;;;;;4968072;28;20802;-87
2023/05/31 05:51:41;;;;;;;0.20;0.10;;;;;;;;;;4983243;28;20061;-83
2023/05/31 05:54:06;;;;;;;0.20;0.10;;;;;;;;;;4983803;28;20089;-85
2023/05/31 05:56:33;;;;;;;0.20;0.10;;;;;;;;;;4985971;28;20524;-86
2023/05/31 05:58:59;;;;;;;0.20;0.10;;;;;;;;;;4981831;28;20104;-84
2023/05/31 06:01:26;;;;;;;0.20;0.10;;;;;;;;;;4967352;28;20062;-83
2023/05/31 06:03:54;;;;;;;0.20;0.10;;;;;;;;;;4983909;28;20366;-82
2023/05/31 06:06:20;;;;;;;0.20;0.10;;;;;;;;;;4984755;28;20209;-85
2023/05/31 06:08:46;;;;;;;0.20;0.10;;;;;;;;;;4971177;28;20053;-86
2023/05/31 06:11:15;;;;;;;0.20;0.10;;;;;;;;;;4986558;28;20046;-82
2023/05/31 06:13:42;;;;;;;0.20;0.10;;;;;;;;;;4983131;28;20241;-86
2023/05/31 06:16:08;;;;;;;0.20;0.13;;;;;;;;;;4966411;28;20038;-85
2023/05/31 06:18:34;;;;;;;0.20;0.10;;;;;;;;;;4988012;28;20043;-83
2023/05/31 06:21:00;;;;;;;0.20;0.10;;;;;;;;;;4966941;28;20039;-86
2023/05/31 06:23:27;;;;;;;0.20;0.00;;;;;;;;;;4983445;28;20136;-87
2023/05/31 06:25:53;;;;;;;0.20;0.10;;;;;;;;;;4983966;28;20040;-84
2023/05/31 06:28:19;;;;;;;0.20;0.10;;;;;;;;;;4979703;28;20042;-82
2023/05/31 06:30:48;;;;;;;0.20;0.13;;;;;;;;;;4964699;28;20052;-86
2023/05/31 06:33:14;;;;;;;0.20;0.10;;;;;;;;;;4986442;28;20041;-83
2023/05/31 06:35:42;;;;;;;0.20;0.10;;;;;;;;;;4981338;28;20038;-86
2023/05/31 06:38:14;;;;;;;0.20;0.13;;;;;;;;;;4987783;28;20398;-85
2023/05/31 06:40:40;;;;;;;0.20;0.10;;;;;;;;;;4985091;28;20387;-85
2023/05/31 06:43:06;;;;;;;0.20;0.15;;;;;;;;;;4984657;28;20050;-85
2023/05/31 06:45:35;;;;;;;0.30;0.22;;;;;;;;;;4986542;28;20053;-85
2023/05/31 06:48:04;;;;;;;0.20;0.10;;;;;;;;;;4979597;28;20045;-84
2023/05/31 06:50:30;;;;;;;0.20;0.10;;;;;;;;;;4982170;28;20042;-85
2023/05/31 06:52:59;;;;;;;0.30;0.30;;;;;;;;;;4981442;28;20057;-87
2023/05/31 06:55:25;;;;;;;0.22;0.13;;;;;;;;;;4985210;28;20034;-84
2023/05/31 06:57:51;;;;;;;0.20;0.10;;;;;;;;;;4987054;28;20034;-85
2023/05/31 07:00:19;;;;;;;0.20;0.10;;;;;;;;;;4984066;28;20042;-83
2023/05/31 07:02:45;;;;;;;0.20;0.10;;;;;;;;;;4968003;28;20046;-84
2023/05/31 07:05:11;;;;;;;0.20;0.10;;;;;;;;;;4985583;28;20129;-86
2023/05/31 07:07:49;;;;;;;0.20;0.10;;;;;;;;;;4982994;28;20042;-83
2023/05/31 07:10:18;;;;;;;0.20;0.10;;;;;;;;;;4985127;28;20043;-83
2023/05/31 07:12:47;;;;;;;0.20;0.10;;;;;;;;;;4986964;28;20618;-85
2023/05/31 07:15:16;;;;;;;0.20;0.10;;;;;;;;;;4968391;28;20061;-88
2023/05/31 07:17:42;;;;;;;0.20;0.10;;;;;;;;;;4984709;28;20121;-85
2023/05/31 07:20:08;;;;;;;0.20;0.10;;;;;;;;;;4982405;28;20066;-85
2023/05/31 07:22:34;;;;;;;0.20;0.10;;;;;;;;;;4981719;28;20523;-82
2023/05/31 07:25:00;;;;;;;0.20;0.10;;;;;;;;;;4987223;28;20573;-83
2023/05/31 07:27:26;;;;;;;0.20;0.10;;;;;;;;;;4984120;28;20085;-85
2023/05/31 07:29:52;;;;;;;0.30;0.20;;;;;;;;;;4982355;28;20073;-83
2023/05/31 07:32:18;;;;;;;0.20;0.10;;;;;;;;;;4968142;28;20443;-84
2023/05/31 07:34:47;;;;;;;0.20;0.17;;;;;;;;;;4969980;28;20034;-84
2023/05/31 07:37:13;;;;;;;0.55;0.47;;;;;;;;;;4987216;28;20113;-84
2023/05/31 07:39:39;;;;;;;0.20;0.10;;;;;;;;;;4970017;28;20034;-85
2023/05/31 07:42:08;;;;;;;0.20;0.20;;;;;;;;;;4983738;28;20092;-86
2023/05/31 07:44:53;;;;;;;0.20;0.10;;;;;;;;;;4983396;28;20039;-86
2023/05/31 07:47:22;;;;;;;0.20;0.10;;;;;;;;;;4965318;28;20160;-86
2023/05/31 07:49:51;;;;;;;0.20;0.10;;;;;;;;;;4983090;28;20062;-84
2023/05/31 07:52:21;;;;;;;0.20;0.10;;;;;;;;;;4982405;28;20073;-86
2023/05/31 07:54:50;;;;;;;0.20;0.10;;;;;;;;;;4967127;28;20038;-87
2023/05/31 07:57:17;;;;;;;0.45;0.25;;;;;;;;;;4982306;28;20491;-87
2023/05/31 07:59:43;;;;;;;0.20;0.00;;;;;;;;;;4982669;28;20042;-87
2023/05/31 08:02:12;;;;;;;0.20;0.10;;;;;;;;;;4982648;28;20396;-83
2023/05/31 08:04:38;;;;;;;0.20;0.10;;;;;;;;;;4982959;28;20053;-87
2023/05/31 08:07:07;;;;;;;0.55;0.30;;;;;;;;;;4963428;28;20042;-83
2023/05/31 08:09:33;;;;;;;0.20;0.13;;;;;;;;;;4981297;28;20442;-84
2023/05/31 08:12:01;;;;;;;0.20;0.10;;;;;;;;;;4982566;28;20042;-85
2023/05/31 08:14:32;;;;;;;0.20;0.10;;;;;;;;;;4983544;28;20046;-87
2023/05/31 08:16:58;;;;;;;0.20;0.10;;;;;;;;;;4970672;28;20034;-85
2023/05/31 08:19:27;;;;;;;0.35;0.25;;;;;;;;;;4985428;28;20038;-87
2023/05/31 08:21:56;;;;;;;0.20;0.10;;;;;;;;;;4984673;28;20054;-85
2023/05/31 08:24:28;;;;;;;0.20;0.10;;;;;;;;;;4983840;28;20039;-85
2023/05/31 08:26:56;;;;;;;0.20;0.10;;;;;;;;;;4968365;28;20046;-87
2023/05/31 08:29:28;;;;;;;0.25;0.20;;;;;;;;;;4967589;28;20133;-84
2023/05/31 08:31:56;;;;;;;0.20;0.20;;;;;;;;;;4980369;28;20050;-86
2023/05/31 08:34:22;;;;;;;0.20;0.10;;;;;;;;;;4983018;28;20047;-85
2023/05/31 08:36:48;;;;;;;2.65;0.20;;;;;;;;;;4981674;28;20077;-83
2023/05/31 08:39:15;;;;;;;0.20;0.10;;;;;;;;;;4983488;28;20061;-85
2023/05/31 08:42:00;;;;;;;0.20;0.10;;;;;;;;;;4978776;28;20034;-85
2023/05/31 08:44:26;;;;;;;0.20;0.10;;;;;;;;;;4982442;28;20042;-86
2023/05/31 08:46:52;;;;;;;0.20;0.10;;;;;;;;;;4981216;28;20047;-85
2023/05/31 08:49:19;;;;;;;0.20;0.10;;;;;;;;;;4971184;28;20070;-85
2023/05/31 08:51:45;;;;;;;0.20;0.03;;;;;;;;;;4980990;28;20125;-86
2023/05/31 08:54:12;;;;;;;0.20;0.10;;;;;;;;;;4982277;28;20041;-85
2023/05/31 08:56:41;;;;;;;0.20;0.10;;;;;;;;;;4983518;28;20038;-86
2023/05/31 08:59:10;;;;;;;0.25;0.13;;;;;;;;;;4982638;28;20035;-83
2023/05/31 09:01:37;;;;;;;0.20;0.00;;;;;;;;;;4981367;28;20146;-84
2023/05/31 09:04:05;;;;;;;0.20;0.20;;;;;;;;;;4980801;28;20036;-84
2023/05/31 09:06:31;;;;;;;0.20;0.10;;;;;;;;;;4982933;28;20069;-85
2023/05/31 09:08:59;;;;;;;0.20;0.10;;;;;;;;;;4985025;28;20779;-87
2023/05/31 09:11:30;;;;;;;1.40;0.20;;;;;;;;;;4980501;28;20561;-83
2023/05/31 09:13:56;;;;;;;0.20;0.10;;;;;;;;;;4982617;28;20149;-84
2023/05/31 09:16:29;;;;;;;0.68;0.32;;;;;;;;;;4980838;28;20046;-86
2023/05/31 09:19:06;;;;;;;0.20;0.10;;;;;;;;;;4980743;28;20035;-86
2023/05/31 09:21:58;;;;;;;0.20;0.15;;;;;;;;;;4969341;28;20499;-85
2023/05/31 09:24:27;;;;;;;0.20;0.10;;;;;;;;;;4955989;28;20121;-86
2023/05/31 09:26:56;;;;;;;0.20;0.10;;;;;;;;;;4967353;28;20046;-83
2023/05/31 09:29:22;;;;;;;0.20;0.20;;;;;;;;;;4984224;28;20038;-85
2023/05/31 09:32:07;;;;;;;0.20;0.10;;;;;;;;;;4984593;28;20046;-83
2023/05/31 09:34:36;;;;;;;0.20;0.10;;;;;;;;;;4989347;28;20403;-84
2023/05/31 09:37:03;;;;;;;0.20;0.20;;;;;;;;;;4986375;28;20120;-83
2023/05/31 09:39:30;;;;;;;0.20;0.10;;;;;;;;;;4973509;28;20043;-83
2023/05/31 09:41:58;;;;;;;0.20;0.15;;;;;;;;;;4986086;28;20050;-86
2023/05/31 09:44:30;;;;;;;0.20;0.10;;;;;;;;;;4989068;28;20077;-83
2023/05/31 09:46:57;;;;;;;0.20;0.10;;;;;;;;;;4987108;28;20052;-85
2023/05/31 09:49:25;;;;;;;0.30;0.20;;;;;;;;;;4969904;28;20069;-85
2023/05/31 09:51:52;;;;;;;0.20;0.10;;;;;;;;;;4984483;28;20554;-85
2023/05/31 09:54:22;;;;;;;0.20;0.10;;;;;;;;;;4982389;28;20042;-85
2023/05/31 09:56:48;;;;;;;0.20;0.10;;;;;;;;;;4990688;28;20038;-85
2023/05/31 09:59:15;;;;;;;0.20;0.10;;;;;;;;;;4986926;28;20137;-84
2023/05/31 10:01:42;;;;;;;0.20;0.10;;;;;;;;;;5001822;28;20105;-86
2023/05/31 10:04:08;;;;;;;0.40;0.15;;;;;;;;;;4991885;28;20038;-84
2023/05/31 10:06:40;;;;;;;0.20;0.20;;;;;;;;;;4990737;28;20126;-84
2023/05/31 10:09:07;;;;;;;0.20;0.10;;;;;;;;;;4989589;28;20631;-85
2023/05/31 10:11:40;;;;;;;0.20;0.10;;;;;;;;;;4982837;28;20034;-87
2023/05/31 10:14:38;;;;;;;0.20;0.10;;;;;;;;;;4984257;28;20042;-84
2023/05/31 10:17:05;;;;;;;0.20;0.10;;;;;;;;;;4984896;28;20050;-86
2023/05/31 10:19:53;;;;;;;0.20;0.10;;;;;;;;;;4987154;28;20045;-86
2023/05/31 10:22:19;;;;;;;0.28;0.15;;;;;;;;;;4969793;28;20144;-83
2023/05/31 10:24:54;;;;;;;1.35;0.47;;;;;;;;;;4973279;28;20046;-85
2023/05/31 10:27:28;;;;;;;0.50;0.40;;;;;;;;;;4985757;28;20065;-84
2023/05/31 10:29:56;;;;;;;0.28;0.17;;;;;;;;;;4986514;28;20567;-83
2023/05/31 10:32:43;;;;;;;0.35;0.35;;;;;;;;;;4987068;28;20044;-86
2023/05/31 10:35:09;;;;;;;0.20;0.10;;;;;;;;;;4985465;28;20047;-84
2023/05/31 10:37:37;;;;;;;0.20;0.10;;;;;;;;;;4983998;28;20046;-85
2023/05/31 10:40:15;;;;;;;0.82;0.63;;;;;;;;;;4979452;28;20515;-84
2023/05/31 10:43:00;;;;;;;0.20;0.10;;;;;;;;;;4983564;28;20080;-84
2023/05/31 10:45:32;;;;;;;0.20;0.10;;;;;;;;;;4965294;28;20046;-84
2023/05/31 10:48:06;;;;;;;0.20;0.10;;;;;;;;;;4985220;28;20030;-87
2023/05/31 10:50:32;;;;;;;0.82;0.30;;;;;;;;;;4984678;28;20092;-86
2023/05/31 10:53:12;;;;;;;0.20;0.00;;;;;;;;;;4985680;28;20515;-85
2023/05/31 10:55:42;;;;;;;0.20;0.10;;;;;;;;;;4985720;28;20498;-80
2023/05/31 10:58:25;;;;;;;0.30;0.20;;;;;;;;;;4962028;28;20038;-86
2023/05/31 11:00:53;;;;;;;0.20;0.10;;;;;;;;;;4985299;28;20239;-86
2023/05/31 11:03:22;;;;;;;0.20;0.10;;;;;;;;;;4984188;28;20061;-86
2023/05/31 11:05:55;;;;;;;0.20;0.10;;;;;;;;;;4980910;28;20046;-87
2023/05/31 11:08:21;;;;;;;0.20;0.10;;;;;;;;;;4979411;28;20499;-90
2023/05/31 11:10:48;;;;;;;0.20;0.10;;;;;;;;;;4975304;28;20553;-87
2023/05/31 11:13:17;;;;;;;0.28;0.15;;;;;;;;;;4981799;28;20038;-89
2023/05/31 11:15:44;;;;;;;0.20;0.10;;;;;;;;;;4981277;28;20035;-85
2023/05/31 11:18:21;;;;;;;0.20;0.13;;;;;;;;;;4986035;28;20098;-86
2023/05/31 11:23:54;;;;;;;0.20;0.10;;;;;;;;;;4972996;28;20058;-84
2023/05/31 11:26:23;;;;;;;0.20;0.10;;;;;;;;;;4980374;28;20058;-84
2023/05/31 11:29:02;;;;;;;0.20;0.13;;;;;;;;;;4965363;28;20054;-85
2023/05/31 11:32:06;;;;;;;0.20;0.10;;;;;;;;;;4977059;28;20868;-85
2023/05/31 11:34:37;;;;;;;0.40;0.30;;;;;;;;;;4927314;29;20040;-85
2023/05/31 11:37:04;;;;;;;0.20;0.10;;;;;;;;;;4945174;23;20025;-86
2023/05/31 11:39:44;;;;;;;0.40;0.40;;;;;;;;;;4993598;28;20068;-83
2023/05/31 11:42:14;;;;;;;0.20;0.10;;;;;;;;;;4999440;28;20044;-84
2023/05/31 11:44:49;;;;;;;0.20;0.10;;;;;;;;;;5000511;28;20042;-86
2023/05/31 11:47:19;;;;;;;0.95;0.55;;;;;;;;;;4996249;28;20104;-86
2023/05/31 11:49:48;;;;;;;0.95;0.57;;;;;;;;;;4991591;28;20041;-83
2023/05/31 11:52:17;;;;;;;0.20;0.10;;;;;;;;;;5016375;28;20138;-85
2023/05/31 11:55:05;;;;;;;0.20;0.10;;;;;;;;;;5013961;28;20029;-82
2023/05/31 11:57:32;;;;;;;0.73;0.40;;;;;;;;;;5013376;28;20044;-88
2023/05/31 12:00:15;;;;;;;0.20;0.10;;;;;;;;;;5027455;28;20123;-81
2023/05/31 12:02:41;;;;;;;;;;;;;;;;;;4982842;28;20417;-84
2023/05/31 12:05:11;;;;;;;0.20;0.10;;;;;;;;;;5014278;28;19917;-84
2023/05/31 12:07:37;;;;;;;0.40;0.30;;;;;;;;;;5004230;28;20045;-85
2023/05/31 12:10:05;;;;;;;0.20;0.10;;;;;;;;;;5002473;28;20060;-83
2023/05/31 12:12:31;;;;;;;0.20;0.10;;;;;;;;;;5012187;28;20049;-84
2023/05/31 12:14:57;;;;;;;0.20;0.10;;;;;;;;;;5005462;28;20041;-83
2023/05/31 12:17:23;;;;;;;0.20;0.10;;;;;;;;;;5016109;28;20057;-87
2023/05/31 12:19:52;;;;;;;0.20;0.10;;;;;;;;;;5014482;28;20042;-83
2023/05/31 12:22:18;;;;;;;0.20;0.10;;;;;;;;;;5004427;28;20046;-87
2023/05/31 12:24:48;;;;;;;0.20;0.10;;;;;;;;;;5011221;28;20457;-86
2023/05/31 12:27:15;;;;;;;0.20;0.13;;;;;;;;;;5005243;28;20041;-84
2023/05/31 12:29:41;;;;;;;0.20;0.20;;;;;;;;;;5005549;28;20037;-82
2023/05/31 12:32:08;;;;;;;0.22;0.13;;;;;;;;;;5010737;28;20481;-82
2023/05/31 12:34:35;;;;;;;0.20;0.10;;;;;;;;;;5008195;28;20038;-83
2023/05/31 12:37:08;;;;;;;0.20;0.10;;;;;;;;;;5011688;28;20110;-87
2023/05/31 12:39:34;;;;;;;0.20;0.10;;;;;;;;;;4998849;28;20037;-84
2023/05/31 12:42:00;;;;;;;0.20;0.10;;;;;;;;;;5001163;28;20048;-84
2023/05/31 12:44:27;;;;;;;0.20;0.10;;;;;;;;;;4996558;28;20054;-85
2023/05/31 12:46:59;;;;;;;0.30;0.10;;;;;;;;;;5011240;28;20449;-83
2023/05/31 12:49:27;;;;;;;0.43;0.43;;;;;;;;;;5008917;28;20060;-81
2023/05/31 12:51:57;;;;;;;0.20;0.10;;;;;;;;;;4999498;28;20517;-86
2023/05/31 12:54:25;;;;;;;0.20;0.10;;;;;;;;;;5014625;28;20514;-87
2023/05/31 12:56:51;;;;;;;0.20;0.10;;;;;;;;;;5002842;28;20049;-84
2023/05/31 12:59:28;;;;;;;0.20;0.10;;;;;;;;;;5006397;28;20037;-85
2023/05/31 13:01:55;;;;;;;0.20;0.10;;;;;;;;;;4993473;28;20148;-82
2023/05/31 13:04:22;;;;;;;0.22;0.20;;;;;;;;;;5005797;28;20421;-85
2023/05/31 13:06:49;;;;;;;0.20;0.10;;;;;;;;;;5009605;28;20092;-85
2023/05/31 13:09:16;;;;;;;0.20;0.10;;;;;;;;;;5007621;28;20137;-83
2023/05/31 13:11:42;;;;;;;0.20;0.20;;;;;;;;;;5016037;28;20069;-87
2023/05/31 13:14:09;;;;;;;0.20;0.10;;;;;;;;;;5011710;28;20033;-84
2023/05/31 13:16:41;;;;;;;0.20;0.10;;;;;;;;;;5002393;28;20175;-85
2023/05/31 13:19:07;;;;;;;0.20;0.10;;;;;;;;;;5003633;28;20048;-84
2023/05/31 13:21:35;;;;;;;0.20;0.10;;;;;;;;;;5002515;28;20535;-85
2023/05/31 13:24:06;;;;;;;0.20;0.10;;;;;;;;;;5015658;28;20042;-83
2023/05/31 13:26:36;;;;;;;0.20;0.10;;;;;;;;;;5017430;28;20050;-87
2023/05/31 13:29:04;;;;;;;0.40;0.20;;;;;;;;;;5023824;28;20049;-84
2023/05/31 13:31:30;;;;;;;0.20;0.10;;;;;;;;;;5015973;28;20052;-84
2023/05/31 13:33:56;;;;;;;0.20;0.10;;;;;;;;;;5013070;28;20049;-84
2023/05/31 13:36:26;;;;;;;1.88;0.40;;;;;;;;;;5000044;28;20530;-88
2023/05/31 13:38:55;;;;;;;0.20;0.10;;;;;;;;;;5011885;28;20068;-87
2023/05/31 13:41:21;;;;;;;0.20;0.10;;;;;;;;;;5013502;28;20499;-84
2023/05/31 13:43:48;;;;;;;0.30;0.10;;;;;;;;;;4999426;28;20579;-85
2023/05/31 13:46:14;;;;;;;0.20;0.10;;;;;;;;;;5013326;28;20056;-86
2023/05/31 13:48:43;;;;;;;0.20;0.10;;;;;;;;;;4994792;28;20145;-83
2023/05/31 13:51:11;;;;;;;0.22;0.22;;;;;;;;;;5012797;28;20604;-86
2023/05/31 13:53:38;;;;;;;0.20;0.10;;;;;;;;;;5014355;28;20065;-83
2023/05/31 13:56:08;;;;;;;0.20;0.10;;;;;;;;;;5016627;28;20053;-83
2023/05/31 13:58:38;;;;;;;0.80;0.68;;;;;;;;;;5013409;28;21679;-86
2023/05/31 14:01:06;;;;;;;0.20;0.10;;;;;;;;;;5002826;28;20045;-84
2023/05/31 14:03:33;;;;;;;0.20;0.10;;;;;;;;;;5012870;28;20080;-82
2023/05/31 14:05:59;;;;;;;0.20;0.10;;;;;;;;;;5013619;28;20038;-83
2023/05/31 14:08:26;;;;;;;0.20;0.10;;;;;;;;;;5018081;28;20056;-84
2023/05/31 14:10:52;;;;;;;0.20;0.10;;;;;;;;;;5002010;28;20056;-83
2023/05/31 14:13:18;;;;;;;0.20;0.10;;;;;;;;;;5011793;28;20046;-83
2023/05/31 14:15:47;;;;;;;0.20;0.10;;;;;;;;;;5016680;28;20089;-84
2023/05/31 14:18:19;;;;;;;0.20;0.15;;;;;;;;;;5004050;28;20089;-85
2023/05/31 14:20:47;;;;;;;0.20;0.10;;;;;;;;;;5017861;28;20492;-83
2023/05/31 14:23:15;;;;;;;0.20;0.10;;;;;;;;;;5011651;28;20038;-85
2023/05/31 14:25:43;;;;;;;0.20;0.10;;;;;;;;;;5009682;28;20209;-84
2023/05/31 14:28:10;;;;;;;0.20;0.13;;;;;;;;;;5013679;28;20041;-79
2023/05/31 14:30:36;;;;;;;0.93;0.50;;;;;;;;;;5015304;28;20049;-84
2023/05/31 14:33:03;;;;;;;0.20;0.10;;;;;;;;;;5011388;28;20073;-86
2023/05/31 14:35:29;;;;;;;0.20;0.10;;;;;;;;;;5012558;28;20972;-84
2023/05/31 14:37:55;;;;;;;0.20;0.10;;;;;;;;;;5002495;28;20063;-87
2023/05/31 14:40:21;;;;;;;0.63;0.63;;;;;;;;;;5008582;28;20085;-86
2023/05/31 14:42:47;;;;;;;0.28;0.10;;;;;;;;;;5005906;28;20562;-85
2023/05/31 14:45:13;;;;;;;0.30;0.30;;;;;;;;;;5025258;28;20033;-86
2023/05/31 14:47:45;;;;;;;0.30;0.20;;;;;;;;;;5018843;28;20144;-87
2023/05/31 14:50:11;;;;;;;0.20;0.10;;;;;;;;;;5003735;28;20042;-83
2023/05/31 14:52:41;;;;;;;0.20;0.10;;;;;;;;;;4998198;28;20053;-84